Time;durP1;ratioP1;P1;durP2;ratioP2;P2;SDS_P1;SDS_P2;PMS_P1;PMS_P2;Temp;Humidity;BMP_temperature;BMP_pressure;BME280_temperature;BME280_humidity;BME280_pressure;Samples;Min_cycle;Max_cycle;Signal;HPM_P1;HPM_P2
2022/01/25 00:32:09;;;;;;;;;;;;;;;;;;5058448;28;19971;-75
2022/01/25 00:34:35;;;;;;;;;;;;;;;;;;5057757;28;20005;-75
2022/01/25 00:37:00;;;;;;;;;;;;;;;;;;5057323;28;19917;-75
2022/01/25 00:39:25;;;;;;;;;;;;;;;;;;5040107;28;19952;-75
2022/01/25 00:41:50;;;;;;;;;;;;;;;;;;5039969;28;19921;-75
2022/01/25 00:44:17;;;;;;;;;;;;;;;;;;5057667;28;19927;-76
2022/01/25 00:46:44;;;;;;;;;;;;;;;;;;5019969;28;19943;-76
2022/01/25 00:49:14;;;;;;;;;;;;;;;;;;5037766;28;19913;-76
2022/01/25 00:54:27;;;;;;;;;;;;;;;;;;5037995;28;19913;-76
2022/01/25 00:56:52;;;;;;;;;;;;;;;;;;5051918;28;20385;-75
2022/01/25 00:59:19;;;;;;;;;;;;;;;;;;5039976;28;19920;-75
2022/01/25 01:01:48;;;;;;;;;;;;;;;;;;5039420;28;20499;-76
2022/01/25 01:04:14;;;;;;;;;;;;;;;;;;5039426;28;20468;-75
2022/01/25 01:06:43;;;;;;;;;;;;;;;;;;5057015;28;20063;-75
2022/01/25 01:09:10;;;;;;;;;;;;;;;;;;5057273;28;19925;-76
2022/01/25 01:11:44;;;;;;;;;;;;;;;;;;5056790;28;19956;-76
2022/01/25 01:43:20;;;;;;;;;;;;;;;;;;5056850;28;19916;-76
2022/01/25 01:48:10;;;;;;;;;;;;;;;;;;5056326;28;19920;-75
2022/01/25 01:50:37;;;;;;;;;;;;;;;;;;5056448;28;20000;-75
2022/01/25 01:53:03;;;;;;;;;;;;;;;;;;5054486;28;19935;-75
2022/01/25 01:55:29;;;;;;;;;;;;;;;;;;5056201;28;19925;-75
2022/01/25 01:57:54;;;;;;;;;;;;;;;;;;5037986;28;20277;-76
2022/01/25 02:00:23;;;;;;;;;;;;;;;;;;5056126;28;19956;-75
2022/01/25 02:02:48;;;;;;;;;;;;;;;;;;5038700;28;20007;-75
2022/01/25 02:05:14;;;;;;;;;;;;;;;;;;5038417;28;20062;-76
2022/01/25 02:07:41;;;;;;;;;;;;;;;;;;5055688;28;19947;-75
2022/01/25 02:10:07;;;;;;;;;;;;;;;;;;5054772;28;19952;-76
2022/01/25 02:12:33;;;;;;;;;;;;;;;;;;5038296;28;20038;-75
2022/01/25 02:15:01;;;;;;;;;;;;;;;;;;5038405;28;19999;-75
2022/01/25 02:17:57;;;;;;;;;;;;;;;;;;5055620;28;20360;-75
2022/01/25 02:22:59;;;;;;;;;;;;;;;;;;5055875;28;20303;-75
2022/01/25 02:25:25;;;;;;;;;;;;;;;;;;5055354;28;19921;-75
2022/01/25 02:27:50;;;;;;;;;;;;;;;;;;5038024;28;20281;-75
2022/01/25 02:30:16;;;;;;;;;;;;;;;;;;5056128;28;19913;-75
2022/01/25 02:32:41;;;;;;;;;;;;;;;;;;5038073;28;19917;-75
2022/01/25 02:35:09;;;;;;;;;;;;;;;;;;5037357;28;20014;-74
2022/01/25 02:37:34;;;;;;;;;;;;;;;;;;5053936;28;19921;-75
2022/01/25 02:40:02;;;;;;;;;;;;;;;;;;5055308;28;19913;-75
2022/01/25 02:42:27;;;;;;;;;;;;;;;;;;5055380;28;19912;-74
2022/01/25 02:44:53;;;;;;;;;;;;;;;;;;5055228;28;19917;-74
2022/01/25 02:50:02;;;;;;;;;;;;;;;;;;5055081;28;19971;-74
2022/01/25 02:52:28;;;;;;;;;;;;;;;;;;5052885;28;19925;-74
2022/01/25 02:54:55;;;;;;;;;;;;;;;;;;5035349;28;19913;-75
2022/01/25 02:57:21;;;;;;;;;;;;;;;;;;5054539;28;20350;-74
2022/01/25 02:59:46;;;;;;;;;;;;;;;;;;5052545;28;19916;-75
2022/01/25 03:02:12;;;;;;;;;;;;;;;;;;5042859;28;19917;-74
2022/01/25 03:04:37;;;;;;;;;;;;;;;;;;5017611;28;19917;-75
2022/01/25 03:07:02;;;;;;;;;;;;;;;;;;5024076;28;19928;-74
2022/01/25 03:09:30;;;;;;;;;;;;;;;;;;5035124;28;20242;-75
2022/01/25 03:11:56;;;;;;;;;;;;;;;;;;5051702;28;19917;-74
2022/01/25 03:14:26;;;;;;;;;;;;;;;;;;5037399;28;20027;-75
2022/01/25 03:22:04;;;;;;;;;;;;;;;;;;5039200;28;19913;-75
2022/01/25 03:24:29;;;;;;;;;;;;;;;;;;5054879;28;19912;-75
2022/01/25 03:26:57;;;;;;;;;;;;;;;;;;5036928;28;19924;-75
2022/01/25 03:29:22;;;;;;;;;;;;;;;;;;5054508;28;20062;-75
2022/01/25 03:31:47;;;;;;;;;;;;;;;;;;5036921;28;19998;-75
2022/01/25 03:34:13;;;;;;;;;;;;;;;;;;5036867;28;19916;-74
2022/01/25 03:36:38;;;;;;;;;;;;;;;;;;5053687;28;19916;-74
2022/01/25 03:39:05;;;;;;;;;;;;;;;;;;5053690;28;19921;-74
2022/01/25 03:41:30;;;;;;;;;;;;;;;;;;5054332;28;19956;-75
2022/01/25 03:43:56;;;;;;;;;;;;;;;;;;5036703;28;19958;-75
2022/01/25 03:46:56;;;;;;;;;;;;;;;;;;5053955;28;19920;-75
2022/01/25 03:52:12;;;;;;;;;;;;;;;;;;5054327;28;19927;-76
2022/01/25 03:54:40;;;;;;;;;;;;;;;;;;5037576;28;19916;-75
2022/01/25 03:57:05;;;;;;;;;;;;;;;;;;5053987;28;19916;-76
2022/01/25 03:59:30;;;;;;;;;;;;;;;;;;5036745;28;19938;-76
2022/01/25 04:01:55;;;;;;;;;;;;;;;;;;5054209;28;19917;-75
2022/01/25 04:04:24;;;;;;;;;;;;;;;;;;5054323;28;19927;-76
2022/01/25 04:06:52;;;;;;;;;;;;;;;;;;5054091;28;20368;-75
2022/01/25 04:09:17;;;;;;;;;;;;;;;;;;5049697;28;20296;-75
2022/01/25 04:11:42;;;;;;;;;;;;;;;;;;5054482;28;19947;-76
2022/01/25 04:14:07;;;;;;;;;;;;;;;;;;5036759;28;19927;-75
2022/01/25 04:16:37;;;;;;;;;;;;;;;;;;5053033;28;20003;-76
2022/01/25 04:19:21;;;;;;;;;;;;;;;;;;5036993;28;19948;-76
2022/01/25 04:27:14;;;;;;;;;;;;;;;;;;5054081;28;19924;-75
2022/01/25 04:29:41;;;;;;;;;;;;;;;;;;5042450;28;19916;-75
2022/01/25 04:32:07;;;;;;;;;;;;;;;;;;5053993;28;19917;-75
2022/01/25 04:53:46;;;;;;;;;;;;;;;;;;5057293;28;20016;-75
2022/01/25 04:56:26;;;;;;;;;;;;;;;;;;5057189;28;20370;-74
2022/01/25 04:59:03;;;;;;;;;;;;;;;;;;5057150;28;20357;-75
2022/01/25 05:01:31;;;;;;;;;;;;;;;;;;5055385;28;19922;-75
2022/01/25 05:04:07;;;;;;;;;;;;;;;;;;5050370;28;19963;-75
2022/01/25 05:06:32;;;;;;;;;;;;;;;;;;5056018;28;19947;-75
2022/01/25 05:09:07;;;;;;;;;;;;;;;;;;5056636;28;19916;-75
2022/01/25 05:11:35;;;;;;;;;;;;;;;;;;5056722;28;20003;-75
2022/01/25 05:16:38;;;;;;;;;;;;;;;;;;5057061;28;19927;-75
2022/01/25 05:24:48;;;;;;;;;;;;;;;;;;4995517;28;19933;-75
2022/01/25 05:27:17;;;;;;;;;;;;;;;;;;4979029;28;19918;-74
2022/01/25 05:29:44;;;;;;;;;;;;;;;;;;4986018;28;19917;-74
2022/01/25 05:32:09;;;;;;;;;;;;;;;;;;4995654;28;19925;-74
2022/01/25 05:34:36;;;;;;;;;;;;;;;;;;4994859;28;20013;-75
2022/01/25 05:37:03;;;;;;;;;;;;;;;;;;4995376;28;19928;-75
2022/01/25 05:39:33;;;;;;;;;;;;;;;;;;4995052;28;19926;-75
2022/01/25 05:42:18;;;;;;;;;;;;;;;;;;4995023;28;19918;-75
2022/01/25 05:47:18;;;;;;;;;;;;;;;;;;4995185;28;19918;-75
2022/01/25 05:49:45;;;;;;;;;;;;;;;;;;4994994;28;19954;-79
2022/01/25 05:52:10;;;;;;;;;;;;;;;;;;4994904;28;19917;-78
2022/01/25 05:54:36;;;;;;;;;;;;;;;;;;4991964;28;19918;-78
2022/01/25 05:57:01;;;;;;;;;;;;;;;;;;5038104;28;19992;-78
2022/01/25 05:59:27;;;;;;;;;;;;;;;;;;5055645;28;20246;-78
2022/01/25 06:01:54;;;;;;;;;;;;;;;;;;5038448;28;19929;-78
2022/01/25 06:04:22;;;;;;;;;;;;;;;;;;5038953;28;19916;-78
2022/01/25 06:06:49;;;;;;;;;;;;;;;;;;5056029;28;20350;-77
2022/01/25 06:09:14;;;;;;;;;;;;;;;;;;5056090;28;19974;-77
2022/01/25 06:11:39;;;;;;;;;;;;;;;;;;5055687;28;19917;-78
2022/01/25 06:14:07;;;;;;;;;;;;;;;;;;5055040;28;19947;-77
2022/01/25 06:16:35;;;;;;;;;;;;;;;;;;5037966;28;19925;-78
2022/01/25 06:19:00;;;;;;;;;;;;;;;;;;5055980;28;19917;-78
2022/01/25 06:21:25;;;;;;;;;;;;;;;;;;5055475;28;19917;-77
2022/01/25 06:23:51;;;;;;;;;;;;;;;;;;5055520;28;19974;-78
2022/01/25 06:26:16;;;;;;;;;;;;;;;;;;5055691;28;20015;-77
2022/01/25 06:28:42;;;;;;;;;;;;;;;;;;5055847;28;19916;-78
2022/01/25 06:31:09;;;;;;;;;;;;;;;;;;5053609;28;19917;-78
2022/01/25 06:33:34;;;;;;;;;;;;;;;;;;5035914;28;19967;-77
2022/01/25 06:36:00;;;;;;;;;;;;;;;;;;5024218;28;20338;-77
2022/01/25 06:38:27;;;;;;;;;;;;;;;;;;5055527;28;20011;-77
2022/01/25 06:40:52;;;;;;;;;;;;;;;;;;5035250;28;20418;-78
2022/01/25 06:43:17;;;;;;;;;;;;;;;;;;5055279;28;20003;-77
2022/01/25 06:45:45;;;;;;;;;;;;;;;;;;5054666;28;19917;-78
2022/01/25 06:48:10;;;;;;;;;;;;;;;;;;5055524;28;19916;-77
2022/01/25 06:50:36;;;;;;;;;;;;;;;;;;5050571;28;19928;-78
2022/01/25 06:53:01;;;;;;;;;;;;;;;;;;5035432;28;19917;-78
2022/01/25 06:55:28;;;;;;;;;;;;;;;;;;5037534;28;19956;-78
2022/01/25 06:57:57;;;;;;;;;;;;;;;;;;5034593;28;20000;-78
2022/01/25 07:00:22;;;;;;;;;;;;;;;;;;5037713;28;20238;-78
2022/01/25 07:02:48;;;;;;;;;;;;;;;;;;5037069;28;19921;-78
2022/01/25 07:05:18;;;;;;;;;;;;;;;;;;5055154;28;19917;-78
2022/01/25 07:07:47;;;;;;;;;;;;;;;;;;5054778;28;20251;-78
2022/01/25 07:10:12;;;;;;;;;;;;;;;;;;5037542;28;19928;-78
2022/01/25 07:12:43;;;;;;;;;;;;;;;;;;5032879;28;19921;-78
2022/01/25 07:15:09;;;;;;;;;;;;;;;;;;5027067;28;19917;-78
2022/01/25 07:17:36;;;;;;;;;;;;;;;;;;5048198;28;19921;-77
2022/01/25 07:20:04;;;;;;;;;;;;;;;;;;5040435;28;19927;-76
2022/01/25 07:22:34;;;;;;;;;;;;;;;;;;5036437;28;19924;-77
2022/01/25 07:25:06;;;;;;;;;;;;;;;;;;5028460;28;19917;-77
2022/01/25 07:27:34;;;;;;;;;;;;;;;;;;5044755;28;20325;-78
2022/01/25 07:29:59;;;;;;;;;;;;;;;;;;5054047;28;19913;-78
2022/01/25 07:32:24;;;;;;;;;;;;;;;;;;5037486;28;19924;-78
2022/01/25 07:34:49;;;;;;;;;;;;;;;;;;5054483;28;19925;-77
2022/01/25 07:37:17;;;;;;;;;;;;;;;;;;5053566;28;19917;-78
2022/01/25 07:39:44;;;;;;;;;;;;;;;;;;5052341;28;19921;-77
2022/01/25 07:42:12;;;;;;;;;;;;;;;;;;5036993;28;19927;-78
2022/01/25 07:44:39;;;;;;;;;;;;;;;;;;5054453;28;20369;-77
2022/01/25 07:47:04;;;;;;;;;;;;;;;;;;5052856;28;19977;-78
2022/01/25 07:49:30;;;;;;;;;;;;;;;;;;5017173;28;19992;-78
2022/01/25 07:51:58;;;;;;;;;;;;;;;;;;5044687;28;19999;-77
2022/01/25 07:54:26;;;;;;;;;;;;;;;;;;5036228;28;19917;-77
2022/01/25 07:56:51;;;;;;;;;;;;;;;;;;5054007;28;19927;-78
2022/01/25 07:59:17;;;;;;;;;;;;;;;;;;5053032;28;19920;-77
2022/01/25 08:01:42;;;;;;;;;;;;;;;;;;5024541;28;19988;-78
2022/01/25 08:04:08;;;;;;;;;;;;;;;;;;5017198;28;20231;-78
2022/01/25 08:06:36;;;;;;;;;;;;;;;;;;5027828;28;20048;-79
2022/01/25 08:09:01;;;;;;;;;;;;;;;;;;5049091;28;19916;-78
2022/01/25 08:11:27;;;;;;;;;;;;;;;;;;5054084;28;19916;-78
2022/01/25 08:13:59;;;;;;;;;;;;;;;;;;5054232;28;19916;-78
2022/01/25 08:16:27;;;;;;;;;;;;;;;;;;5053766;28;20301;-78
2022/01/25 08:18:52;;;;;;;;;;;;;;;;;;5053326;28;19921;-78
2022/01/25 08:21:17;;;;;;;;;;;;;;;;;;5051999;28;20334;-78
2022/01/25 08:23:42;;;;;;;;;;;;;;;;;;5027598;28;19917;-79
2022/01/25 08:26:08;;;;;;;;;;;;;;;;;;5057785;28;19920;-77
2022/01/25 08:28:33;;;;;;;;;;;;;;;;;;5056658;28;19917;-77
2022/01/25 08:30:58;;;;;;;;;;;;;;;;;;5056217;28;19925;-90
2022/01/25 08:33:24;;;;;;;;;;;;;;;;;;5056723;28;19931;-87
2022/01/25 08:35:49;;;;;;;;;;;;;;;;;;5054704;28;19933;-91
2022/01/25 08:38:14;;;;;;;;;;;;;;;;;;5060789;28;19921;-91
2022/01/25 08:40:44;;;;;;;;;;;;;;;;;;5049417;28;19940;-90
2022/01/25 08:43:09;;;;;;;;;;;;;;;;;;5055918;28;19924;-83
2022/01/25 08:45:34;;;;;;;;;;;;;;;;;;5075556;28;19928;-92
2022/01/25 08:48:00;;;;;;;;;;;;;;;;;;5067943;28;19911;-84
2022/01/25 08:50:25;;;;;;;;;;;;;;;;;;5065715;28;19984;-90
2022/01/25 08:52:50;;;;;;;;;;;;;;;;;;5064889;28;19925;-85
2022/01/25 08:55:18;;;;;;;;;;;;;;;;;;5052186;28;20368;-89
2022/01/25 08:57:43;;;;;;;;;;;;;;;;;;5049706;28;19917;-90
2022/01/25 09:00:14;;;;;;;;;;;;;;;;;;5037100;28;19928;-92
2022/01/25 09:02:42;;;;;;;;;;;;;;;;;;5048529;28;19916;-89
2022/01/25 09:05:12;;;;;;;;;;;;;;;;;;5054561;28;19924;-86
2022/01/25 09:07:37;;;;;;;;;;;;;;;;;;5020437;28;19975;-91
2022/01/25 09:10:03;;;;;;;;;;;;;;;;;;5056255;28;20016;-91
2022/01/25 09:12:28;;;;;;;;;;;;;;;;;;5037117;28;20246;-94
2022/01/25 09:14:56;;;;;;;;;;;;;;;;;;5058890;28;19917;-88
2022/01/25 09:17:23;;;;;;;;;;;;;;;;;;5062095;28;19925;-95
2022/01/25 09:19:48;;;;;;;;;;;;;;;;;;5061764;28;20036;-90
2022/01/25 09:22:14;;;;;;;;;;;;;;;;;;5062254;28;20353;-94
2022/01/25 09:24:39;;;;;;;;;;;;;;;;;;5040601;28;20404;-93
2022/01/25 09:27:07;;;;;;;;;;;;;;;;;;5038843;28;19927;-94
2022/01/25 09:29:32;;;;;;;;;;;;;;;;;;5062679;28;19948;-89
2022/01/25 09:32:02;;;;;;;;;;;;;;;;;;5062002;28;19939;-91
2022/01/25 09:34:28;;;;;;;;;;;;;;;;;;5055299;28;19924;-88
2022/01/25 09:36:53;;;;;;;;;;;;;;;;;;5057022;28;20227;-93
2022/01/25 09:39:19;;;;;;;;;;;;;;;;;;5057131;28;19928;-88
2022/01/25 09:41:45;;;;;;;;;;;;;;;;;;5041349;28;20038;-84
2022/01/25 09:44:10;;;;;;;;;;;;;;;;;;5062618;28;19964;-91
2022/01/25 09:46:36;;;;;;;;;;;;;;;;;;5057033;28;19917;-91
2022/01/25 09:49:04;;;;;;;;;;;;;;;;;;5039425;28;19917;-89
2022/01/25 09:51:29;;;;;;;;;;;;;;;;;;5056873;28;20361;-91
2022/01/25 09:53:54;;;;;;;;;;;;;;;;;;5039256;28;19917;-89
2022/01/25 09:56:19;;;;;;;;;;;;;;;;;;5056418;28;20353;-85
2022/01/25 09:58:45;;;;;;;;;;;;;;;;;;5040684;28;19920;-90
2022/01/25 10:01:10;;;;;;;;;;;;;;;;;;5040136;28;19991;-90
2022/01/25 10:03:39;;;;;;;;;;;;;;;;;;5056744;28;19947;-89
2022/01/25 10:06:16;;;;;;;;;;;;;;;;;;5052168;28;20004;-88
2022/01/25 10:08:41;;;;;;;;;;;;;;;;;;5057022;28;20277;-91
2022/01/25 10:11:13;;;;;;;;;;;;;;;;;;5056914;28;19916;-90
2022/01/25 10:13:38;;;;;;;;;;;;;;;;;;5027296;28;19935;-86
2022/01/25 10:16:08;;;;;;;;;;;;;;;;;;5056388;28;19917;-90
2022/01/25 10:18:37;;;;;;;;;;;;;;;;;;5039301;28;19932;-92
2022/01/25 10:21:02;;;;;;;;;;;;;;;;;;5038808;28;20449;-85
2022/01/25 10:23:31;;;;;;;;;;;;;;;;;;5056786;28;19921;-89
2022/01/25 10:25:56;;;;;;;;;;;;;;;;;;5056421;28;19927;-90
2022/01/25 10:28:23;;;;;;;;;;;;;;;;;;5038654;28;19916;-90
2022/01/25 10:30:48;;;;;;;;;;;;;;;;;;5038220;28;20388;-90
2022/01/25 10:33:27;;;;;;;;;;;;;;;;;;5056672;28;19924;-91
2022/01/25 10:35:55;;;;;;;;;;;;;;;;;;5056430;28;20223;-85
2022/01/25 10:38:21;;;;;;;;;;;;;;;;;;5061555;28;19978;-85
2022/01/25 10:40:57;;;;;;;;;;;;;;;;;;5069357;28;19917;-86
2022/01/25 10:43:23;;;;;;;;;;;;;;;;;;5033492;28;20012;-86
2022/01/25 10:46:07;;;;;;;;;;;;;;;;;;5026097;28;19956;-83
2022/01/25 10:48:33;;;;;;;;;;;;;;;;;;5052306;28;20253;-87
2022/01/25 10:51:02;;;;;;;;;;;;;;;;;;5034262;28;19920;-88
2022/01/25 10:53:27;;;;;;;;;;;;;;;;;;5053262;28;19944;-85
2022/01/25 10:55:52;;;;;;;;;;;;;;;;;;5047969;28;19955;-86
2022/01/25 10:58:18;;;;;;;;;;;;;;;;;;5053910;28;20020;-93
2022/01/25 11:00:44;;;;;;;;;;;;;;;;;;5053249;28;19941;-88
2022/01/25 11:03:23;;;;;;;;;;;;;;;;;;5054048;28;19916;-87
2022/01/25 11:05:49;;;;;;;;;;;;;;;;;;5032826;28;20027;-86
2022/01/25 11:08:15;;;;;;;;;;;;;;;;;;5052365;28;20080;-83
2022/01/25 11:10:53;;;;;;;;;;;;;;;;;;5054309;28;19909;-85
2022/01/25 11:15:52;;;;;;;;;;;;;;;;;;5054293;28;19924;-85
2022/01/25 11:18:18;;;;;;;;;;;;;;;;;;5036100;28;19925;-83
2022/01/25 11:20:45;;;;;;;;;;;;;;;;;;5035350;28;19971;-90
2022/01/25 11:23:11;;;;;;;;;;;;;;;;;;5047104;28;19917;-84
2022/01/25 11:25:36;;;;;;;;;;;;;;;;;;5032748;28;19928;-84
2022/01/25 11:28:04;;;;;;;;;;;;;;;;;;5030754;28;19924;-88
2022/01/25 11:30:29;;;;;;;;;;;;;;;;;;5029401;28;19948;-90
2022/01/25 11:32:55;;;;;;;;;;;;;;;;;;5049737;28;19952;-88
2022/01/25 11:35:20;;;;;;;;;;;;;;;;;;5017101;28;20342;-87
2022/01/25 11:37:49;;;;;;;;;;;;;;;;;;5051444;28;20401;-88
2022/01/25 11:40:27;;;;;;;;;;;;;;;;;;5045764;28;19916;-89
2022/01/25 11:42:57;;;;;;;;;;;;;;;;;;5047075;28;19932;-87
2022/01/25 11:45:24;;;;;;;;;;;;;;;;;;5012132;28;19916;-87
2022/01/25 11:47:52;;;;;;;;;;;;;;;;;;5044976;28;19933;-86
2022/01/25 11:50:27;;;;;;;;;;;;;;;;;;5048254;28;19948;-87
2022/01/25 11:52:54;;;;;;;;;;;;;;;;;;5048282;28;19917;-85
2022/01/25 11:55:22;;;;;;;;;;;;;;;;;;5053558;28;19924;-83
2022/01/25 11:57:51;;;;;;;;;;;;;;;;;;5053262;28;19936;-82
2022/01/25 12:00:16;;;;;;;;;;;;;;;;;;5035871;28;20337;-87
2022/01/25 12:02:45;;;;;;;;;;;;;;;;;;5034883;28;19927;-85
2022/01/25 12:05:11;;;;;;;;;;;;;;;;;;5050443;28;19928;-87
2022/01/25 12:07:42;;;;;;;;;;;;;;;;;;5034222;28;20004;-87
2022/01/25 12:10:39;;;;;;;;;;;;;;;;;;5037420;28;19917;-86
2022/01/25 12:13:17;;;;;;;;;;;;;;;;;;5033015;28;19927;-86
2022/01/25 12:15:44;;;;;;;;;;;;;;;;;;5046429;28;19924;-85
2022/01/25 12:18:10;;;;;;;;;;;;;;;;;;5054027;28;20266;-84
2022/01/25 12:20:49;;;;;;;;;;;;;;;;;;5036703;28;19917;-85
2022/01/25 12:23:20;;;;;;;;;;;;;;;;;;5033486;28;19927;-89
2022/01/25 12:25:52;;;;;;;;;;;;;;;;;;5036119;28;19921;-79
2022/01/25 12:28:21;;;;;;;;;;;;;;;;;;5049914;28;19960;-80
2022/01/25 12:30:47;;;;;;;;;;;;;;;;;;5044624;28;19928;-79
2022/01/25 12:33:25;;;;;;;;;;;;;;;;;;5047501;28;19921;-79
2022/01/25 12:36:02;;;;;;;;;;;;;;;;;;5027929;28;19924;-81
2022/01/25 12:38:49;;;;;;;;;;;;;;;;;;5035000;28;20342;-78
2022/01/25 12:41:18;;;;;;;;;;;;;;;;;;5034086;28;19917;-81
2022/01/25 12:43:53;;;;;;;;;;;;;;;;;;5051149;28;20007;-80
2022/01/25 12:46:48;;;;;;;;;;;;;;;;;;5021709;28;19925;-81
2022/01/25 12:49:20;;;;;;;;;;;;;;;;;;5033556;28;20332;-81
2022/01/25 12:51:52;;;;;;;;;;;;;;;;;;5052869;28;19935;-79
2022/01/25 12:54:21;;;;;;;;;;;;;;;;;;5050313;28;19928;-81
2022/01/25 12:56:50;;;;;;;;;;;;;;;;;;5052120;28;19975;-79
2022/01/25 12:59:15;;;;;;;;;;;;;;;;;;5032851;28;19924;-81
2022/01/25 13:01:42;;;;;;;;;;;;;;;;;;5052622;28;20019;-81
2022/01/25 13:04:08;;;;;;;;;;;;;;;;;;5051879;28;20243;-80
2022/01/25 13:06:37;;;;;;;;;;;;;;;;;;5034307;28;19943;-80
2022/01/25 13:09:17;;;;;;;;;;;;;;;;;;5052193;28;19917;-80
2022/01/25 13:16:55;;;;;;;;;;;;;;;;;;5056995;28;19917;-80
2022/01/25 13:19:24;;;;;;;;;;;;;;;;;;5039296;28;19952;-81
2022/01/25 13:21:51;;;;;;;;;;;;;;;;;;5056856;28;19931;-83
2022/01/25 13:24:18;;;;;;;;;;;;;;;;;;5056962;28;20718;-83
2022/01/25 13:26:58;;;;;;;;;;;;;;;;;;5040755;28;20314;-83
2022/01/25 13:32:12;;;;;;;;;;;;;;;;;;5061640;28;19928;-81
2022/01/25 13:34:39;;;;;;;;;;;;;;;;;;5048861;28;20132;-80
2022/01/25 13:37:04;;;;;;;;;;;;;;;;;;5055258;28;20253;-79
2022/01/25 13:39:30;;;;;;;;;;;;;;;;;;5054471;28;20480;-81
2022/01/25 13:42:04;;;;;;;;;;;;;;;;;;5056457;28;19925;-81
2022/01/25 13:47:13;;;;;;;;;;;;;;;;;;5047280;28;19924;-82
2022/01/25 13:49:42;;;;;;;;;;;;;;;;;;5048038;28;19924;-79
2022/01/25 13:52:07;;;;;;;;;;;;;;;;;;5053903;28;19967;-80
2022/01/25 13:54:32;;;;;;;;;;;;;;;;;;5048069;28;19956;-81
2022/01/25 13:57:12;;;;;;;;;;;;;;;;;;5055071;28;19987;-79
2022/01/25 13:59:40;;;;;;;;;;;;;;;;;;5038353;28;19917;-81
2022/01/25 14:02:05;;;;;;;;;;;;;;;;;;5021367;28;19917;-82
2022/01/25 14:04:33;;;;;;;;;;;;;;;;;;5035993;28;20004;-82
2022/01/25 14:07:02;;;;;;;;;;;;;;;;;;5037906;28;19916;-82
2022/01/25 14:09:30;;;;;;;;;;;;;;;;;;5037052;28;19962;-81
2022/01/25 14:22:56;;;;;;;;;;;;;;;;;;5054785;28;20305;-82
2022/01/25 14:25:24;;;;;;;;;;;;;;;;;;5047017;28;19921;-82
2022/01/25 14:27:57;;;;;;;;;;;;;;;;;;5054149;28;19923;-81
2022/01/25 14:30:25;;;;;;;;;;;;;;;;;;5034524;28;19956;-81
2022/01/25 14:33:04;;;;;;;;;;;;;;;;;;5052181;28;20361;-81
2022/01/25 14:35:32;;;;;;;;;;;;;;;;;;5037377;28;19921;-81
2022/01/25 14:37:59;;;;;;;;;;;;;;;;;;5037210;28;19950;-81
2022/01/25 14:40:25;;;;;;;;;;;;;;;;;;5054527;28;19919;-79
2022/01/25 14:42:50;;;;;;;;;;;;;;;;;;5054270;28;19920;-81
2022/01/25 14:45:20;;;;;;;;;;;;;;;;;;5054284;28;19923;-82
2022/01/25 14:47:49;;;;;;;;;;;;;;;;;;5036175;28;19920;-80
2022/01/25 14:50:19;;;;;;;;;;;;;;;;;;5036221;28;19928;-77
2022/01/25 14:53:07;;;;;;;;;;;;;;;;;;5051213;28;19927;-76
2022/01/25 14:55:33;;;;;;;;;;;;;;;;;;5036774;28;19917;-78
2022/01/25 15:00:50;;;;;;;;;;;;;;;;;;5053804;28;19951;-78
2022/01/25 15:03:18;;;;;;;;;;;;;;;;;;5026798;28;19917;-78
2022/01/25 15:05:45;;;;;;;;;;;;;;;;;;5053658;28;19927;-79
2022/01/25 15:08:10;;;;;;;;;;;;;;;;;;5035848;28;19917;-79
2022/01/25 15:10:35;;;;;;;;;;;;;;;;;;5035489;28;20019;-79
2022/01/25 15:13:03;;;;;;;;;;;;;;;;;;5053351;28;19928;-77
2022/01/25 15:15:46;;;;;;;;;;;;;;;;;;5046645;28;19924;-79
2022/01/25 15:18:11;;;;;;;;;;;;;;;;;;5048645;28;20535;-79
2022/01/25 15:20:36;;;;;;;;;;;;;;;;;;5053605;28;19916;-76
2022/01/25 15:23:03;;;;;;;;;;;;;;;;;;5053346;28;19928;-78
2022/01/25 15:25:30;;;;;;;;;;;;;;;;;;5054056;28;19916;-78
2022/01/25 15:27:56;;;;;;;;;;;;;;;;;;5053087;28;19916;-79
2022/01/25 15:30:24;;;;;;;;;;;;;;;;;;5047030;28;19936;-78
2022/01/25 15:32:49;;;;;;;;;;;;;;;;;;5034310;28;19940;-76
2022/01/25 15:35:20;;;;;;;;;;;;;;;;;;5051471;28;19924;-75
2022/01/25 15:37:45;;;;;;;;;;;;;;;;;;5051615;28;19924;-76
2022/01/25 15:40:12;;;;;;;;;;;;;;;;;;5052809;28;19927;-76
2022/01/25 15:42:38;;;;;;;;;;;;;;;;;;5045823;28;19917;-77
2022/01/25 15:45:21;;;;;;;;;;;;;;;;;;5049378;28;19974;-76
2022/01/25 15:47:49;;;;;;;;;;;;;;;;;;5027393;28;20023;-76
2022/01/25 15:50:17;;;;;;;;;;;;;;;;;;5034858;28;20377;-75
2022/01/25 15:52:43;;;;;;;;;;;;;;;;;;5053177;28;19917;-76
2022/01/25 15:55:09;;;;;;;;;;;;;;;;;;5053204;28;19917;-76
2022/01/25 15:57:36;;;;;;;;;;;;;;;;;;5045985;28;20366;-75
2022/01/25 16:00:03;;;;;;;;;;;;;;;;;;5047787;28;19925;-75
2022/01/25 16:02:28;;;;;;;;;;;;;;;;;;5052448;28;19927;-77
2022/01/25 16:04:53;;;;;;;;;;;;;;;;;;5052725;28;20007;-77
2022/01/25 16:07:19;;;;;;;;;;;;;;;;;;5052627;28;19916;-79
2022/01/25 16:09:52;;;;;;;;;;;;;;;;;;5018106;28;19925;-76
2022/01/25 16:12:18;;;;;;;;;;;;;;;;;;5036060;28;19928;-78
2022/01/25 16:14:45;;;;;;;;;;;;;;;;;;5050026;28;19917;-78
2022/01/25 16:17:11;;;;;;;;;;;;;;;;;;5046477;28;19971;-78
2022/01/25 16:19:36;;;;;;;;;;;;;;;;;;5050650;28;19948;-77
2022/01/25 16:22:04;;;;;;;;;;;;;;;;;;5052239;28;19971;-77
2022/01/25 16:24:29;;;;;;;;;;;;;;;;;;5016064;28;19925;-78
2022/01/25 16:26:54;;;;;;;;;;;;;;;;;;5026627;28;19917;-77
2022/01/25 16:29:19;;;;;;;;;;;;;;;;;;5053265;28;20011;-77
2022/01/25 16:31:45;;;;;;;;;;;;;;;;;;5044838;28;19932;-78
2022/01/25 16:34:11;;;;;;;;;;;;;;;;;;5028067;28;19975;-78
2022/01/25 16:36:37;;;;;;;;;;;;;;;;;;5035316;28;19920;-78
2022/01/25 16:39:06;;;;;;;;;;;;;;;;;;5035543;28;19923;-79
2022/01/25 16:41:36;;;;;;;;;;;;;;;;;;5011797;28;20377;-79
2022/01/25 16:44:02;;;;;;;;;;;;;;;;;;5034619;28;19928;-75
2022/01/25 16:46:28;;;;;;;;;;;;;;;;;;5034323;28;19940;-74
2022/01/25 16:48:55;;;;;;;;;;;;;;;;;;5055663;28;20305;-77
2022/01/25 16:51:23;;;;;;;;;;;;;;;;;;5056554;28;19935;-76
2022/01/25 16:53:48;;;;;;;;;;;;;;;;;;5038947;28;19917;-78
2022/01/25 16:56:14;;;;;;;;;;;;;;;;;;5052762;28;19940;-79
2022/01/25 16:58:39;;;;;;;;;;;;;;;;;;5039155;28;19921;-78
2022/01/25 17:01:04;;;;;;;;;;;;;;;;;;5019442;28;19917;-78
2022/01/25 17:03:29;;;;;;;;;;;;;;;;;;5053516;28;20277;-77
2022/01/25 17:05:56;;;;;;;;;;;;;;;;;;5054718;28;19917;-79
2022/01/25 17:08:22;;;;;;;;;;;;;;;;;;5055302;28;19916;-78
2022/01/25 17:10:49;;;;;;;;;;;;;;;;;;5038906;28;19916;-78
2022/01/25 17:13:14;;;;;;;;;;;;;;;;;;5029104;28;19953;-79
2022/01/25 17:15:39;;;;;;;;;;;;;;;;;;5051157;28;19978;-78
2022/01/25 17:18:05;;;;;;;;;;;;;;;;;;5055506;28;19917;-78
2022/01/25 17:20:30;;;;;;;;;;;;;;;;;;5054615;28;19992;-76
2022/01/25 17:22:55;;;;;;;;;;;;;;;;;;5051651;28;19969;-77
2022/01/25 17:25:20;;;;;;;;;;;;;;;;;;5038471;28;20492;-76
2022/01/25 17:27:46;;;;;;;;;;;;;;;;;;5056385;28;19917;-77
2022/01/25 17:30:11;;;;;;;;;;;;;;;;;;5055783;28;19932;-77
2022/01/25 17:32:37;;;;;;;;;;;;;;;;;;5037891;28;19936;-77
2022/01/25 17:35:05;;;;;;;;;;;;;;;;;;5030072;28;19916;-78
2022/01/25 17:37:30;;;;;;;;;;;;;;;;;;5056334;28;19921;-77
2022/01/25 17:39:58;;;;;;;;;;;;;;;;;;5056111;28;19917;-78
2022/01/25 17:42:23;;;;;;;;;;;;;;;;;;5014427;28;20003;-78
2022/01/25 17:44:49;;;;;;;;;;;;;;;;;;5022133;28;20016;-77
2022/01/25 17:47:14;;;;;;;;;;;;;;;;;;5038554;28;19929;-76
2022/01/25 17:49:43;;;;;;;;;;;;;;;;;;5055427;28;19979;-77
2022/01/25 17:52:08;;;;;;;;;;;;;;;;;;5056197;28;19931;-75
2022/01/25 17:54:36;;;;;;;;;;;;;;;;;;5038562;28;20327;-77
2022/01/25 17:57:42;;;;;;;;;;;;;;;;;;5053263;28;20002;-78
2022/01/25 18:00:11;;;;;;;;;;;;;;;;;;5034261;28;19925;-80
2022/01/25 18:02:38;;;;;;;;;;;;;;;;;;5018682;28;19917;-77
2022/01/25 18:05:06;;;;;;;;;;;;;;;;;;5035631;28;20020;-79
2022/01/25 18:07:31;;;;;;;;;;;;;;;;;;5059410;28;19976;-83
2022/01/25 18:09:57;;;;;;;;;;;;;;;;;;5057736;28;20027;-78
2022/01/25 18:12:22;;;;;;;;;;;;;;;;;;5031443;28;19987;-78
2022/01/25 18:14:48;;;;;;;;;;;;;;;;;;5041590;28;20299;-79
2022/01/25 18:17:17;;;;;;;;;;;;;;;;;;5031723;28;19939;-79
2022/01/25 18:19:44;;;;;;;;;;;;;;;;;;5019804;28;19974;-78
2022/01/25 18:22:13;;;;;;;;;;;;;;;;;;5042402;28;19931;-78
2022/01/25 18:28:01;;;;;;;;;;;;;;;;;;4998192;28;20403;-80
2022/01/25 18:30:26;;;;;;;;;;;;;;;;;;5030150;28;19962;-78
2022/01/25 18:32:54;;;;;;;;;;;;;;;;;;5040248;28;20357;-78
2022/01/25 18:35:32;;;;;;;;;;;;;;;;;;5039513;28;22149;-80
2022/01/25 18:37:57;;;;;;;;;;;;;;;;;;5034844;28;19920;-79
2022/01/25 18:40:22;;;;;;;;;;;;;;;;;;5038192;28;19924;-77
2022/01/25 18:42:54;;;;;;;;;;;;;;;;;;5037901;28;20000;-77
2022/01/25 18:45:19;;;;;;;;;;;;;;;;;;5039549;28;19921;-77
2022/01/25 18:47:47;;;;;;;;;;;;;;;;;;5053897;28;19920;-74
2022/01/25 18:50:21;;;;;;;;;;;;;;;;;;5057278;28;19916;-82
2022/01/25 18:52:46;;;;;;;;;;;;;;;;;;5053965;28;19928;-79
2022/01/25 18:55:11;;;;;;;;;;;;;;;;;;5057179;28;20245;-79
2022/01/25 18:57:37;;;;;;;;;;;;;;;;;;5053378;28;20266;-80
2022/01/25 19:00:02;;;;;;;;;;;;;;;;;;5056860;28;19917;-78
2022/01/25 19:02:39;;;;;;;;;;;;;;;;;;5038261;28;20021;-78
2022/01/25 19:05:05;;;;;;;;;;;;;;;;;;5024014;28;19940;-78
2022/01/25 19:07:30;;;;;;;;;;;;;;;;;;5037072;28;19924;-77
2022/01/25 19:09:55;;;;;;;;;;;;;;;;;;5035740;28;19927;-78
2022/01/25 19:12:21;;;;;;;;;;;;;;;;;;5054694;28;20233;-79
2022/01/25 19:14:46;;;;;;;;;;;;;;;;;;5049721;28;19920;-79